createdAt,value
2022-08-29T07:30:22.792Z,18.31
2022-08-29T07:35:30.471Z,18.35
2022-08-29T07:40:32.441Z,18.53
2022-08-29T07:45:34.215Z,18.86
2022-08-29T07:50:36.002Z,18.98
2022-08-29T07:55:37.568Z,19.34
2022-08-29T08:00:39.143Z,19.48
2022-08-29T08:05:43.199Z,19.66
2022-08-29T08:10:46.880Z,19.85
2022-08-29T08:15:55.746Z,20.02
2022-08-29T08:20:57.386Z,20.27
2022-08-29T08:25:59.520Z,20.38
2022-08-29T08:31:05.841Z,20.46
2022-08-29T08:36:29.823Z,20.72
2022-08-29T08:41:40.435Z,21.04
2022-08-29T08:46:47.361Z,21.26
2022-08-29T08:51:57.345Z,21.21
2022-08-29T08:57:11.469Z,21.42
2022-08-29T09:02:28.235Z,21.66
2022-08-29T09:07:55.174Z,21.88
2022-08-29T09:13:21.691Z,22.07
2022-08-29T09:18:35.168Z,22.15
2022-08-29T09:23:45.905Z,22.28
2022-08-29T09:28:48.457Z,22.35
2022-08-29T09:34:12.826Z,22.40
2022-08-29T09:39:14.573Z,22.31
2022-08-29T09:44:27.610Z,22.31
2022-08-29T09:49:29.362Z,22.45
2022-08-29T09:54:31.884Z,22.57
2022-08-29T09:59:36.608Z,22.71
2022-08-29T10:04:43.559Z,22.87
2022-08-29T10:09:58.269Z,22.80
2022-08-29T10:15:04.706Z,23.02
2022-08-29T10:20:09.872Z,23.00
2022-08-29T10:25:23.504Z,23.04
2022-08-29T10:30:51.478Z,23.18
2022-08-29T10:36:03.726Z,23.42
2022-08-29T10:41:28.809Z,23.64
2022-08-29T10:46:46.245Z,23.87
2022-08-29T10:51:58.188Z,23.78
2022-08-29T10:57:02.059Z,23.93
2022-08-29T11:02:08.040Z,24.18
2022-08-29T11:07:26.627Z,24.26
2022-08-29T11:12:45.165Z,24.46
2022-08-29T11:17:56.081Z,24.65
2022-08-29T11:23:01.876Z,24.66
2022-08-29T11:28:23.725Z,24.72
2022-08-29T11:33:41.299Z,24.90
2022-08-29T11:39:11.105Z,25.08
2022-08-29T11:44:22.256Z,25.14
2022-08-29T11:49:40.863Z,25.30
2022-08-29T11:54:42.401Z,25.41
2022-08-29T11:59:44.652Z,25.45
2022-08-29T12:05:01.935Z,25.53
2022-08-29T12:10:11.248Z,25.55
2022-08-29T12:15:27.817Z,25.56
2022-08-29T12:20:44.408Z,25.82
2022-08-29T12:31:34.697Z,26.00
2022-08-29T12:37:05.552Z,26.05
2022-08-29T12:42:25.296Z,26.13
2022-08-29T12:47:41.837Z,26.25
2022-08-29T12:52:59.811Z,26.25
2022-08-29T12:58:49.685Z,26.28
2022-08-29T13:04:06.531Z,26.35
2022-08-29T13:09:09.954Z,26.24
2022-08-29T13:14:17.448Z,26.34
2022-08-29T13:19:21.495Z,26.44
2022-08-29T13:24:23.271Z,26.52
2022-08-29T13:29:38.663Z,26.60
2022-08-29T13:35:01.647Z,26.62
2022-08-29T13:40:31.228Z,26.48
2022-08-29T13:45:35.327Z,26.51
2022-08-29T13:50:36.972Z,26.44
2022-08-29T13:55:41.433Z,26.53
2022-08-29T14:00:43.720Z,26.61
2022-08-29T14:05:45.316Z,26.59
2022-08-29T14:10:46.917Z,26.66
2022-08-29T14:15:48.623Z,26.74
2022-08-29T14:20:50.248Z,26.68
2022-08-29T14:25:52.235Z,26.68
2022-08-29T14:30:53.958Z,26.68
2022-08-29T14:35:55.618Z,26.70
2022-08-29T14:40:57.327Z,26.81
2022-08-29T14:45:58.981Z,26.77
2022-08-29T14:57:59.893Z,26.85
2022-08-29T15:03:01.606Z,26.82
2022-08-29T15:08:06.529Z,26.83
2022-08-29T15:13:08.534Z,26.83
2022-08-29T15:18:23.528Z,26.82
2022-08-29T15:23:33.831Z,26.93
2022-08-29T15:28:35.384Z,26.90
2022-08-29T15:33:37.037Z,26.90
2022-08-29T15:38:38.725Z,26.83
2022-08-29T15:43:40.532Z,26.74
2022-08-29T15:48:42.142Z,26.77
2022-08-29T15:53:43.726Z,26.76
2022-08-29T15:58:45.513Z,26.69
2022-08-29T16:03:47.042Z,26.68
2022-08-29T16:08:48.591Z,26.61
2022-08-29T16:14:24.850Z,26.63
2022-08-29T16:19:20.531Z,26.56
2022-08-29T16:24:28.025Z,26.51
2022-08-29T16:29:29.671Z,26.46
2022-08-29T16:34:31.391Z,26.40
2022-08-29T16:39:32.998Z,26.33
2022-08-29T16:44:34.676Z,26.27
2022-08-29T16:49:36.239Z,26.21
2022-08-29T16:54:38.389Z,26.12
2022-08-29T16:59:39.935Z,26.04
2022-08-29T17:04:41.498Z,25.95
2022-08-29T17:09:43.008Z,25.87
2022-08-29T17:14:44.530Z,25.81
2022-08-29T17:19:48.573Z,25.68
2022-08-29T17:24:50.199Z,25.58
2022-08-29T17:29:51.739Z,25.44
2022-08-29T17:34:53.301Z,25.39
2022-08-29T17:39:54.843Z,25.26
2022-08-29T17:44:57.765Z,25.08
2022-08-29T17:49:59.893Z,24.85
2022-08-29T17:55:06.963Z,24.62
2022-08-29T18:00:09.692Z,24.38
2022-08-29T18:05:14.248Z,24.12
2022-08-29T18:10:18.593Z,23.84
2022-08-29T18:15:20.251Z,23.63
2022-08-29T18:20:25.159Z,23.40
2022-08-29T18:25:26.831Z,23.08
2022-08-29T18:30:28.452Z,22.82
2022-08-29T18:35:30.308Z,22.69
2022-08-29T18:40:33.660Z,22.47
2022-08-29T18:45:40.018Z,22.22
2022-08-29T18:50:41.601Z,22.02
2022-08-29T18:55:50.405Z,21.90
2022-08-29T19:00:54.435Z,21.88
2022-08-29T19:05:56.352Z,21.90
2022-08-29T19:11:00.050Z,21.86
2022-08-29T19:23:00.025Z,21.75
2022-08-29T19:28:02.502Z,21.53
2022-08-29T19:33:06.416Z,21.30
2022-08-29T19:38:08.358Z,21.02
2022-08-29T19:43:13.676Z,20.86
2022-08-29T19:48:15.871Z,20.91
2022-08-29T19:53:24.670Z,20.94
2022-08-29T19:58:31.898Z,20.83
2022-08-29T20:03:36.514Z,20.79
2022-08-29T20:08:41.659Z,20.60
2022-08-29T20:13:47.596Z,20.34
2022-08-29T20:18:52.514Z,20.18
2022-08-29T20:23:57.705Z,19.93
2022-08-29T20:29:01.989Z,19.70
2022-08-29T20:34:03.745Z,19.56
2022-08-29T20:39:06.665Z,19.38
2022-08-29T20:44:10.088Z,19.28
2022-08-29T20:49:13.846Z,19.09
2022-08-29T20:54:19.402Z,18.93
2022-08-29T20:59:23.572Z,18.75
2022-08-29T21:04:46.120Z,18.91
2022-08-29T21:09:50.340Z,18.90
2022-08-29T21:14:51.997Z,18.74
2022-08-29T21:19:53.565Z,18.71
2022-08-29T21:24:55.826Z,18.72
2022-08-29T21:29:57.588Z,18.78
2022-08-29T21:34:59.274Z,18.71
2022-08-29T21:40:03.934Z,18.81
2022-08-29T21:45:06.014Z,18.96
2022-08-29T21:50:08.921Z,18.94
2022-08-29T21:55:10.564Z,19.00
2022-08-29T22:00:14.280Z,19.16
2022-08-29T22:05:15.934Z,19.30
2022-08-29T22:10:21.361Z,19.34
2022-08-29T22:15:42.349Z,19.43
2022-08-29T22:20:46.673Z,19.59
2022-08-29T22:25:48.322Z,19.64
2022-08-29T22:30:49.966Z,19.56
2022-08-29T22:35:52.124Z,19.48
2022-08-29T22:40:53.680Z,19.30
2022-08-29T22:45:55.241Z,19.16
2022-08-29T22:50:58.152Z,19.14
2022-08-29T22:56:00.137Z,19.06
2022-08-29T23:01:02.139Z,18.98
2022-08-29T23:06:03.747Z,18.90
2022-08-29T23:11:05.567Z,18.78
2022-08-29T23:16:07.179Z,18.70
2022-08-29T23:21:09.126Z,18.60
2022-08-29T23:26:13.386Z,18.60
2022-08-29T23:31:18.675Z,18.56
2022-08-29T23:36:21.549Z,18.46
2022-08-29T23:41:23.979Z,18.38
2022-08-29T23:46:26.116Z,18.36
2022-08-29T23:51:27.900Z,18.38
2022-08-29T23:56:29.480Z,18.31
